Aérodrome :
LOGIN :

S'inscrire | Disclaimer

   EN    FR    IT 

 










Légende :    VFR   VFR Marginal   IFR   IFR Intensif   IFR Très Intensif
Visi : 
Plafond : 
>= 8 km
>= 3000ft
5 à 8 km
1000 à 3000 ft
1500m à 5 km
500 à 1000 ft
800 à 1500m
200 à 500 ft
< 800m
< 200 ft
Symboles :   Orages  Brouillard  Fortes neiges  Fortes précipitations  Vent > 20 kt
SIGMETs :   Divers  Orages  Givrage  Turbulence  Onde Orograph.  Cendres Volcan.







- Altitude de l'aérodrome : 1036 ft
- Code IATA : ERF


EDDE - Erfurt

DERNIER METAR :
  • 210720Z 05005KT 3500 BR OVC004 M00/M01 Q1016 R88/690395 TEMPO 2500

METARs EXPIRÉS :
  • 210650Z 07006KT 040V110 3500 BR OVC004 M00/M01 Q1016 R88/690395 TEMPO 2500
  • 210620Z 07005KT 3500 BR OVC004 M00/M01 Q1015 R88/690395 TEMPO 2500
  • 210550Z 06005KT 4000 BR OVC004 M00/M01 Q1015 R88/690395 NOSIG
  • 210520Z 06004KT 030V090 4000 BR OVC004 M01/M01 Q1015 R88/690395 NOSIG
  • 210450Z 07005KT 5000 BR BKN005 OVC015 M00/M01 Q1015 R88/690395 TEMPO 4000 BR BKN004
  • 210420Z 09005KT 050V110 5000 BR OVC005 M00/M01 Q1014 R88/690395

TAF TAF EDDE
Valide du 21 à 06h jusqu'au 22 à 06h UTC


210500Z 2106/2206 06007KT 4000 BR BKN004
BECMG 2106/2109 6000 SCT004 BKN007
TEMPO 2109/2118 BKN035
PROB30
TEMPO 2109/2115 2500 SG BKN003
PROB30
TEMPO 2115/2206 1400 -FZDZ BKN003
Pas de NOTAMs connus pour ce terrain.



MET'MAP, la Météo Aéronautique d'un coup d'oeil ! - Copyright ORBIFLY Décembre 2007 - Disclaimer

ORBIFLY MET'MAP TEAM :

Programmation & Développement : Alexandra Zaïnal
Conception & Développement : Baudouin d'Aumeries
Co-Programmation & Développement : Marc-Olivier Méhu
Soutien technique & logistique : Manuel Goepfert

Contact : metmap@orbifly.com




SOURCES & CREDITS :

   NOAA